createdAt,value
2022-12-17T00:01:41.970Z,23.33
2022-12-17T00:04:27.450Z,24.00
2022-12-17T00:07:12.696Z,31.00
2022-12-17T00:09:58.505Z,28.25
2022-12-17T00:12:44.103Z,31.67
2022-12-17T00:15:29.721Z,33.75
2022-12-17T00:18:26.163Z,37.25
2022-12-17T00:21:15.739Z,33.50
2022-12-17T00:24:01.626Z,40.50
2022-12-17T00:26:46.900Z,30.67
2022-12-17T00:29:32.811Z,27.00
2022-12-17T00:32:18.402Z,22.00
2022-12-17T00:35:03.933Z,30.67
2022-12-17T00:37:49.965Z,28.67
2022-12-17T00:40:35.294Z,36.50
2022-12-17T00:43:30.164Z,31.67
2022-12-17T00:46:15.761Z,33.00
2022-12-17T00:49:01.683Z,26.33
2022-12-17T00:51:47.918Z,35.50
2022-12-17T00:54:33.471Z,35.50
2022-12-17T00:57:18.841Z,36.50
2022-12-17T01:00:04.376Z,20.67
2022-12-17T01:02:49.899Z,24.00
2022-12-17T01:05:35.680Z,27.33
2022-12-17T01:08:29.034Z,24.33
2022-12-17T01:11:20.448Z,26.00
2022-12-17T01:14:06.087Z,22.00
2022-12-17T01:16:51.715Z,11.33
2022-12-17T01:19:37.198Z,16.00
2022-12-17T01:22:23.077Z,15.33
2022-12-17T01:25:08.710Z,16.67
2022-12-17T01:27:55.336Z,18.67
2022-12-17T01:30:41.658Z,26.33
2022-12-17T01:33:28.620Z,28.67
2022-12-17T01:36:15.807Z,16.67
2022-12-17T01:39:09.244Z,26.33
2022-12-17T01:41:54.652Z,24.33
2022-12-17T01:45:00.898Z,25.67
2022-12-17T01:47:50.574Z,29.67
2022-12-17T01:50:37.294Z,30.00
2022-12-17T01:53:24.723Z,32.00
2022-12-17T01:56:11.429Z,25.00
2022-12-17T01:58:58.194Z,19.00
2022-12-17T02:01:43.860Z,18.67
2022-12-17T02:04:30.648Z,22.33
2022-12-17T02:07:36.614Z,27.67
2022-12-17T02:10:48.570Z,30.00
2022-12-17T02:14:11.006Z,30.33
2022-12-17T02:17:18.598Z,22.00
2022-12-17T02:20:51.883Z,26.67
2022-12-17T02:24:08.343Z,35.50
2022-12-17T02:27:21.813Z,28.33
2022-12-17T02:30:13.047Z,21.67
2022-12-17T02:33:02.333Z,24.00
2022-12-17T02:35:59.019Z,27.67
2022-12-17T02:38:47.298Z,33.33
2022-12-17T02:41:38.176Z,29.67
2022-12-17T02:44:25.062Z,34.00
2022-12-17T02:47:15.107Z,19.00
2022-12-17T02:50:00.731Z,25.00
2022-12-17T02:52:47.116Z,25.00
2022-12-17T02:55:32.728Z,31.50
2022-12-17T02:58:18.036Z,19.00
2022-12-17T03:01:03.504Z,16.67
2022-12-17T03:03:50.534Z,18.33
2022-12-17T03:06:36.256Z,23.33
2022-12-17T03:09:29.583Z,22.00
2022-12-17T03:12:15.043Z,17.33
2022-12-17T03:15:00.645Z,24.33
2022-12-17T03:17:47.623Z,18.00
2022-12-17T03:20:33.275Z,4.00
2022-12-17T03:23:24.214Z,12.67
2022-12-17T03:26:10.292Z,8.33
2022-12-17T03:28:56.506Z,7.00
2022-12-17T03:31:42.294Z,12.67
2022-12-17T03:34:27.864Z,12.67
2022-12-17T03:37:13.185Z,11.33
2022-12-17T03:39:58.534Z,18.33
2022-12-17T03:42:44.179Z,24.00
2022-12-17T03:45:30.375Z,25.00
2022-12-17T03:48:29.358Z,30.67
2022-12-17T03:51:15.363Z,29.33
2022-12-17T03:54:00.943Z,28.00
2022-12-17T03:56:46.995Z,28.33
2022-12-17T03:59:32.618Z,26.33
2022-12-17T04:02:18.345Z,22.00
2022-12-17T04:05:04.159Z,29.33
2022-12-17T04:07:49.789Z,21.33
2022-12-17T04:10:35.211Z,23.33
2022-12-17T04:13:20.581Z,18.67
2022-12-17T04:16:06.117Z,21.33
2022-12-17T04:18:51.827Z,25.67
2022-12-17T04:21:37.076Z,24.00
2022-12-17T04:24:22.777Z,31.67
2022-12-17T04:27:08.142Z,11.00
2022-12-17T04:29:53.701Z,30.33
2022-12-17T04:32:39.180Z,31.33
2022-12-17T04:35:24.877Z,23.33
2022-12-17T04:38:10.257Z,24.75
2022-12-17T04:40:55.581Z,19.00
2022-12-17T04:43:40.857Z,25.00
2022-12-17T04:46:26.388Z,21.33
2022-12-17T04:49:11.756Z,21.67
2022-12-17T04:51:57.664Z,19.00
2022-12-17T04:54:43.351Z,19.00
2022-12-17T04:57:28.637Z,27.33
2022-12-17T05:00:13.894Z,26.33
2022-12-17T05:02:59.185Z,38.00
2022-12-17T05:05:44.899Z,42.50
2022-12-17T05:08:30.245Z,9.75
2022-12-17T05:11:21.317Z,32.75
2022-12-17T05:14:06.616Z,34.33
2022-12-17T05:16:52.177Z,36.50
2022-12-17T05:19:45.085Z,35.00
2022-12-17T05:22:30.376Z,27.00
2022-12-17T05:25:15.892Z,27.00
2022-12-17T05:28:01.302Z,29.33
2022-12-17T05:30:47.173Z,25.00
2022-12-17T05:33:32.932Z,32.33
2022-12-17T05:36:22.026Z,18.25
2022-12-17T05:39:08.294Z,31.25
2022-12-17T05:41:54.285Z,21.33
2022-12-17T05:44:39.600Z,23.67
2022-12-17T05:47:25.256Z,25.67
2022-12-17T05:50:10.542Z,28.00
2022-12-17T05:52:56.142Z,26.33
2022-12-17T05:55:42.048Z,28.00
2022-12-17T05:58:30.156Z,32.50
2022-12-17T06:01:21.779Z,29.33
2022-12-17T06:04:07.429Z,27.33
2022-12-17T06:06:53.264Z,24.25
2022-12-17T06:09:39.263Z,23.00
2022-12-17T06:12:24.915Z,15.00
2022-12-17T06:15:10.222Z,26.67
2022-12-17T06:17:56.070Z,22.00
2022-12-17T06:20:41.876Z,23.33
2022-12-17T06:23:30.303Z,25.67
2022-12-17T06:26:16.265Z,30.33
2022-12-17T06:29:02.464Z,22.67
2022-12-17T06:31:47.957Z,22.67
2022-12-17T06:34:33.584Z,25.67
2022-12-17T06:37:18.866Z,30.00
2022-12-17T06:40:04.415Z,24.00
2022-12-17T06:42:49.907Z,39.00
2022-12-17T06:45:35.285Z,35.50
2022-12-17T06:48:25.450Z,35.25
2022-12-17T06:51:14.199Z,45.00
2022-12-17T06:54:00.501Z,43.25
2022-12-17T06:56:46.774Z,45.50
2022-12-17T06:59:32.405Z,34.00
2022-12-17T07:02:18.073Z,37.50
2022-12-17T07:05:03.657Z,37.00
2022-12-17T07:07:49.376Z,26.25
2022-12-17T07:10:34.888Z,30.50
2022-12-17T07:13:27.357Z,44.50
2022-12-17T07:16:13.504Z,45.75
2022-12-17T07:18:59.267Z,40.75
2022-12-17T07:21:44.545Z,38.00
2022-12-17T07:24:30.341Z,42.00
2022-12-17T07:27:15.584Z,34.00
2022-12-17T07:30:01.272Z,47.00
2022-12-17T07:32:46.529Z,43.00
2022-12-17T07:35:32.066Z,37.00
2022-12-17T07:38:23.231Z,43.50
2022-12-17T07:41:09.234Z,40.75
2022-12-17T07:43:54.485Z,47.00
2022-12-17T07:46:40.213Z,23.50
2022-12-17T07:49:26.496Z,40.25
2022-12-17T07:52:30.382Z,43.75
2022-12-17T07:55:18.306Z,40.00
2022-12-17T07:58:03.830Z,44.25
2022-12-17T08:00:49.523Z,41.50
2022-12-17T08:03:35.575Z,49.50
2022-12-17T08:06:21.339Z,44.50
2022-12-17T08:09:07.020Z,48.00
2022-12-17T08:11:52.337Z,44.50
2022-12-17T08:14:37.942Z,45.00
2022-12-17T08:17:23.383Z,30.00
2022-12-17T08:20:08.694Z,45.25
2022-12-17T08:22:54.402Z,41.25
2022-12-17T08:25:39.930Z,47.00
2022-12-17T08:28:49.517Z,38.50
2022-12-17T08:31:32.146Z,36.50
2022-12-17T08:34:17.654Z,39.50
2022-12-17T08:37:03.265Z,44.50
2022-12-17T08:39:48.612Z,49.75
2022-12-17T08:42:33.806Z,29.50
2022-12-17T08:45:19.240Z,39.75
2022-12-17T08:48:04.603Z,35.00
2022-12-17T08:50:50.021Z,42.00
2022-12-17T08:53:35.645Z,40.50
2022-12-17T08:56:20.843Z,42.25
2022-12-17T08:59:06.516Z,45.50
2022-12-17T09:01:52.300Z,45.25
2022-12-17T09:04:37.928Z,34.25
2022-12-17T09:07:23.657Z,49.50
2022-12-17T09:10:09.130Z,46.50
2022-12-17T09:12:56.660Z,43.75
2022-12-17T09:15:45.540Z,31.67
2022-12-17T09:18:30.904Z,27.00
2022-12-17T09:21:16.566Z,32.33
2022-12-17T09:24:02.115Z,36.67
2022-12-17T09:26:47.515Z,36.00
2022-12-17T09:29:34.255Z,31.33
2022-12-17T09:32:20.099Z,37.00
2022-12-17T09:35:05.588Z,38.50
2022-12-17T09:37:52.150Z,41.33
2022-12-17T09:40:41.857Z,45.33
2022-12-17T09:43:42.401Z,44.33
2022-12-17T09:46:47.217Z,45.67
2022-12-17T09:49:38.618Z,25.00
2022-12-17T09:52:47.712Z,28.00
2022-12-17T09:55:41.747Z,33.00
2022-12-17T09:58:41.746Z,29.33
2022-12-17T10:01:39.248Z,37.67
2022-12-17T10:04:33.531Z,34.33
2022-12-17T10:07:20.671Z,44.00
2022-12-17T10:10:23.516Z,37.00
2022-12-17T10:13:13.550Z,38.00
2022-12-17T10:16:01.816Z,35.75
2022-12-17T10:18:48.965Z,40.00
2022-12-17T10:21:38.010Z,40.67
2022-12-17T10:24:28.320Z,34.00
2022-12-17T10:27:14.259Z,35.33
2022-12-17T10:30:01.889Z,34.67
2022-12-17T10:32:48.446Z,47.67
2022-12-17T10:35:39.191Z,52.50
2022-12-17T10:38:44.885Z,47.75
2022-12-17T10:42:00.817Z,49.00
2022-12-17T10:44:56.897Z,41.00
2022-12-17T10:47:44.798Z,40.00
2022-12-17T10:50:39.655Z,48.75
2022-12-17T10:53:41.954Z,46.50
2022-12-17T10:56:43.157Z,53.25
2022-12-17T10:59:44.191Z,52.50
2022-12-17T11:02:39.270Z,52.75
2022-12-17T11:05:33.134Z,49.00
2022-12-17T11:08:20.241Z,24.75
2022-12-17T11:11:07.075Z,47.00
2022-12-17T11:14:01.592Z,46.00
2022-12-17T11:17:03.124Z,48.00
2022-12-17T11:20:13.852Z,47.00
2022-12-17T11:23:12.668Z,46.50
2022-12-17T11:26:02.069Z,45.25
2022-12-17T11:28:49.070Z,48.75
2022-12-17T11:31:37.261Z,47.25
2022-12-17T11:34:34.023Z,47.00
2022-12-17T11:37:39.779Z,46.75
2022-12-17T11:40:35.853Z,44.00
2022-12-17T11:43:40.059Z,46.25
2022-12-17T11:46:41.788Z,49.25
2022-12-17T11:49:53.586Z,46.25
2022-12-17T11:52:59.879Z,51.25
2022-12-17T11:56:05.615Z,51.00
2022-12-17T11:58:56.707Z,31.00
2022-12-17T12:01:58.734Z,36.33
2022-12-17T12:05:15.786Z,44.75
2022-12-17T12:08:09.708Z,49.50
2022-12-17T12:11:06.201Z,44.75
2022-12-17T12:14:05.981Z,43.00
2022-12-17T12:17:00.718Z,40.50
2022-12-17T12:20:00.484Z,42.25
2022-12-17T12:22:51.636Z,41.50
2022-12-17T12:25:43.099Z,46.25
2022-12-17T12:28:47.426Z,48.00
2022-12-17T12:31:57.001Z,45.25
2022-12-17T12:34:48.648Z,39.00
2022-12-17T12:37:37.330Z,35.67
2022-12-17T12:40:41.350Z,30.25
2022-12-17T12:43:47.554Z,52.00
2022-12-17T12:47:00.342Z,40.25
2022-12-17T12:50:03.421Z,44.25
2022-12-17T12:52:50.288Z,55.25
2022-12-17T12:55:35.936Z,49.00
2022-12-17T12:58:24.204Z,45.50
2022-12-17T13:01:09.447Z,41.50
2022-12-17T13:04:03.849Z,47.50
2022-12-17T13:06:52.774Z,43.25
2022-12-17T13:09:23.667Z,45.75
2022-12-17T13:11:57.348Z,47.00
2022-12-17T13:14:31.688Z,42.75
2022-12-17T13:17:07.547Z,48.00
2022-12-17T13:19:40.503Z,53.50
2022-12-17T13:22:31.803Z,45.25
2022-12-17T13:25:31.193Z,41.33
2022-12-17T13:27:58.198Z,40.00
2022-12-17T13:30:35.680Z,43.50
2022-12-17T13:33:05.350Z,46.50
2022-12-17T13:35:49.896Z,45.50
2022-12-17T13:38:27.348Z,42.50
2022-12-17T13:40:57.053Z,46.50
2022-12-17T13:43:31.141Z,39.75
2022-12-17T13:45:58.060Z,37.50
2022-12-17T13:48:28.230Z,38.25
2022-12-17T13:51:00.119Z,45.75
2022-12-17T13:53:28.817Z,47.50
2022-12-17T13:55:58.267Z,40.25
2022-12-17T13:58:31.514Z,44.00
2022-12-17T14:01:26.542Z,44.50
2022-12-17T14:04:06.159Z,47.75
2022-12-17T14:06:37.367Z,38.00
2022-12-17T14:09:04.899Z,27.33
2022-12-17T14:11:52.062Z,36.00
2022-12-17T14:14:32.943Z,51.00
2022-12-17T14:17:00.707Z,50.50
2022-12-17T14:19:29.740Z,57.00
2022-12-17T14:21:57.459Z,43.00
2022-12-17T14:24:29.511Z,47.00
2022-12-17T14:27:00.470Z,50.25
2022-12-17T14:29:32.747Z,52.00
2022-12-17T14:32:02.952Z,40.75
2022-12-17T14:34:41.363Z,50.50
2022-12-17T14:37:18.632Z,30.50
2022-12-17T14:39:48.187Z,39.00
2022-12-17T14:42:32.661Z,26.33
2022-12-17T14:45:01.112Z,31.00
2022-12-17T14:47:37.060Z,20.67
2022-12-17T14:50:12.870Z,24.67
2022-12-17T14:52:44.055Z,34.33
2022-12-17T14:55:28.315Z,35.75
2022-12-17T14:58:18.711Z,50.50
2022-12-17T15:00:47.893Z,56.50
2022-12-17T15:03:17.901Z,58.50
2022-12-17T15:05:49.207Z,48.50
2022-12-17T15:08:16.229Z,45.00
2022-12-17T15:10:43.194Z,47.50
2022-12-17T15:13:10.105Z,43.25
2022-12-17T15:15:37.052Z,45.50
2022-12-17T15:18:04.049Z,39.00
2022-12-17T15:20:31.431Z,32.33
2022-12-17T15:22:58.320Z,39.00
2022-12-17T15:25:25.222Z,33.75
2022-12-17T15:27:52.208Z,34.25
2022-12-17T15:30:19.383Z,36.00
2022-12-17T15:32:46.716Z,44.00
2022-12-17T15:35:14.645Z,39.50
2022-12-17T15:37:41.516Z,33.00
2022-12-17T15:40:12.207Z,38.00
2022-12-17T15:43:02.944Z,40.50
2022-12-17T15:45:32.917Z,36.75
2022-12-17T15:47:59.926Z,33.00
2022-12-17T15:50:27.381Z,29.75
2022-12-17T15:52:54.300Z,28.67
2022-12-17T15:55:21.558Z,24.00
2022-12-17T15:57:48.446Z,25.00
2022-12-17T16:00:15.704Z,42.25
2022-12-17T16:02:42.839Z,16.75
2022-12-17T16:05:10.442Z,38.00
2022-12-17T16:07:38.271Z,46.00
2022-12-17T16:10:06.815Z,40.50
2022-12-17T16:12:33.969Z,48.25
2022-12-17T16:15:00.906Z,41.25
2022-12-17T16:17:27.893Z,49.00
2022-12-17T16:19:54.870Z,40.25
2022-12-17T16:22:22.265Z,45.25
2022-12-17T16:24:49.242Z,33.50
2022-12-17T16:27:18.382Z,33.25
2022-12-17T16:29:47.097Z,33.00
2022-12-17T16:32:15.258Z,33.00
2022-12-17T16:34:42.191Z,35.00
2022-12-17T16:37:09.323Z,48.25
2022-12-17T16:39:36.287Z,43.75
2022-12-17T16:42:03.389Z,40.75
2022-12-17T16:44:30.280Z,50.25
2022-12-17T16:46:57.272Z,34.00
2022-12-17T16:49:26.828Z,44.50
2022-12-17T16:51:55.506Z,43.00
2022-12-17T16:54:27.436Z,46.75
2022-12-17T16:56:55.977Z,45.25
2022-12-17T16:59:23.735Z,36.00
2022-12-17T17:01:52.536Z,42.25
2022-12-17T17:04:23.047Z,45.50
2022-12-17T17:06:54.475Z,40.00
2022-12-17T17:09:22.723Z,37.00
2022-12-17T17:11:52.000Z,39.25
2022-12-17T17:14:20.222Z,40.50
2022-12-17T17:16:49.154Z,35.25
2022-12-17T17:19:16.292Z,27.00
2022-12-17T17:21:50.033Z,47.50
2022-12-17T17:24:21.237Z,35.00
2022-12-17T17:26:49.909Z,31.00
2022-12-17T17:29:17.260Z,30.50
2022-12-17T17:34:31.134Z,40.00
2022-12-17T17:36:58.050Z,31.50
2022-12-17T17:39:25.098Z,45.25
2022-12-17T17:41:52.248Z,44.00
2022-12-17T17:44:19.191Z,36.00
2022-12-17T17:46:46.246Z,40.25
2022-12-17T17:49:13.226Z,41.00
2022-12-17T17:54:29.266Z,37.25
2022-12-17T17:56:56.356Z,12.00
2022-12-17T17:59:29.389Z,39.25
2022-12-17T18:01:58.274Z,36.50
2022-12-17T18:04:25.312Z,46.00
2022-12-17T18:07:23.799Z,49.00
2022-12-17T18:09:39.898Z,51.00
2022-12-17T18:12:27.003Z,42.50
2022-12-17T18:17:41.003Z,45.00
2022-12-17T18:20:09.898Z,45.00
2022-12-17T18:22:37.401Z,32.75
2022-12-17T18:25:05.497Z,43.50
2022-12-17T18:27:33.308Z,44.00
2022-12-17T18:30:00.273Z,40.50
2022-12-17T18:32:27.300Z,47.00
2022-12-17T18:34:55.632Z,37.25
2022-12-17T18:37:22.790Z,29.25
2022-12-17T18:39:49.960Z,45.00
2022-12-17T18:42:35.622Z,25.50
2022-12-17T18:45:02.804Z,42.50
2022-12-17T18:47:30.033Z,33.75
2022-12-17T18:49:57.367Z,36.00
2022-12-17T18:52:25.178Z,30.25
2022-12-17T18:54:52.167Z,28.00
2022-12-17T18:57:20.359Z,27.00
2022-12-17T18:59:47.303Z,20.75
2022-12-17T19:02:15.735Z,27.50
2022-12-17T19:04:43.215Z,25.25
2022-12-17T19:07:10.976Z,32.00
2022-12-17T19:09:39.724Z,17.50
2022-12-17T19:12:09.443Z,32.50
2022-12-17T19:14:36.998Z,37.25
2022-12-17T19:17:04.335Z,27.50
2022-12-17T19:19:31.324Z,25.00
2022-12-17T19:22:01.361Z,33.50
2022-12-17T19:24:28.523Z,35.00
2022-12-17T19:26:55.822Z,29.50
2022-12-17T19:29:24.511Z,45.25
2022-12-17T19:31:51.811Z,31.25
2022-12-17T19:34:19.753Z,38.00
2022-12-17T19:36:47.748Z,29.00
2022-12-17T19:39:17.613Z,28.50
2022-12-17T19:41:46.164Z,30.00
2022-12-17T19:44:16.783Z,44.75
2022-12-17T19:46:44.322Z,39.00
2022-12-17T19:49:12.788Z,30.75
2022-12-17T19:51:44.484Z,24.25
2022-12-17T19:54:15.224Z,27.00
2022-12-17T19:56:44.997Z,30.00
2022-12-17T19:59:13.128Z,31.25
2022-12-17T20:01:45.748Z,30.75
2022-12-17T20:04:15.093Z,32.50
2022-12-17T20:06:43.564Z,29.50
2022-12-17T20:09:10.820Z,36.50
2022-12-17T20:11:37.916Z,30.25
2022-12-17T20:14:09.174Z,29.75
2022-12-17T20:16:42.590Z,32.00
2022-12-17T20:19:16.968Z,42.25
2022-12-17T20:21:43.958Z,28.00
2022-12-17T20:24:12.388Z,25.00
2022-12-17T20:26:40.690Z,25.50
2022-12-17T20:29:08.200Z,23.75
2022-12-17T20:31:35.785Z,26.00
2022-12-17T20:34:04.799Z,33.50
2022-12-17T20:36:32.270Z,26.00
2022-12-17T20:38:59.393Z,23.50
2022-12-17T20:41:28.732Z,30.00
2022-12-17T20:43:56.572Z,39.25
2022-12-17T20:46:25.523Z,42.00
2022-12-17T20:48:53.723Z,39.50
2022-12-17T20:51:23.628Z,35.50
2022-12-17T20:53:51.193Z,36.50
2022-12-17T20:56:21.453Z,30.75
2022-12-17T20:58:53.133Z,35.75
2022-12-17T21:01:22.567Z,37.25
2022-12-17T21:03:51.409Z,35.00
2022-12-17T21:06:22.535Z,35.50
2022-12-17T21:08:52.825Z,29.50
2022-12-17T21:11:24.508Z,28.75
2022-12-17T21:13:52.601Z,31.75
2022-12-17T21:16:23.640Z,30.25
2022-12-17T21:18:54.858Z,25.00
2022-12-17T21:21:28.068Z,26.25
2022-12-17T21:23:56.077Z,28.00
2022-12-17T21:26:26.229Z,32.50
2022-12-17T21:28:57.417Z,24.75
2022-12-17T21:31:33.800Z,22.67
2022-12-17T21:34:03.358Z,21.00
2022-12-17T21:36:32.996Z,28.50
2022-12-17T21:39:00.947Z,31.75
2022-12-17T21:41:32.526Z,30.75
2022-12-17T21:44:02.494Z,30.50
2022-12-17T21:46:30.444Z,34.00
2022-12-17T21:49:00.392Z,31.00
2022-12-17T21:51:29.112Z,31.00
2022-12-17T21:53:59.180Z,27.00
2022-12-17T21:56:26.795Z,29.67
2022-12-17T21:59:01.252Z,25.33
2022-12-17T22:01:32.090Z,24.25
2022-12-17T22:04:02.870Z,27.50
2022-12-17T22:06:40.787Z,31.00
2022-12-17T22:09:27.893Z,31.00
2022-12-17T22:12:20.266Z,29.33
2022-12-17T22:14:47.687Z,25.00
2022-12-17T22:17:16.352Z,24.00
2022-12-17T22:19:43.351Z,24.00
2022-12-17T22:22:10.320Z,25.50
2022-12-17T22:24:37.268Z,18.33
2022-12-17T22:27:08.801Z,28.50
2022-12-17T22:29:55.760Z,36.25
2022-12-17T22:32:41.170Z,9.25
2022-12-17T22:38:04.261Z,19.25
2022-12-17T22:40:06.207Z,24.25
2022-12-17T22:44:33.955Z,27.75
2022-12-17T22:44:38.994Z,27.00
2022-12-17T22:46:17.151Z,29.50
2022-12-17T22:48:44.295Z,28.00
2022-12-17T22:51:14.126Z,22.67
2022-12-17T22:53:50.679Z,20.00
2022-12-17T22:56:22.520Z,33.75
2022-12-17T22:59:06.347Z,24.00
2022-12-17T23:01:35.285Z,18.00
2022-12-17T23:04:03.806Z,20.00
2022-12-17T23:06:30.834Z,19.67
2022-12-17T23:08:59.249Z,23.00
2022-12-17T23:11:29.222Z,32.75
2022-12-17T23:13:56.645Z,28.00
2022-12-17T23:16:24.159Z,23.33
2022-12-17T23:18:52.077Z,21.33
2022-12-17T23:21:24.069Z,21.33
2022-12-17T23:23:52.405Z,27.75
2022-12-17T23:26:37.918Z,19.00
2022-12-17T23:29:08.336Z,4.00
2022-12-17T23:31:38.521Z,15.00
2022-12-17T23:34:05.734Z,25.50
2022-12-17T23:36:33.173Z,18.00
2022-12-17T23:39:00.491Z,13.00
2022-12-17T23:41:30.444Z,16.00
2022-12-17T23:43:58.488Z,24.33
2022-12-17T23:46:27.638Z,23.75
2022-12-17T23:48:55.240Z,21.25
2022-12-17T23:51:24.176Z,28.00
2022-12-17T23:53:51.134Z,22.67
2022-12-17T23:56:24.083Z,20.33
2022-12-17T23:58:56.761Z,16.67
